Time;durP1;ratioP1;P1;durP2;ratioP2;P2;SDS_P1;SDS_P2;PMS_P1;PMS_P2;Temp;Humidity;BMP_temperature;BMP_pressure;BME280_temperature;BME280_humidity;BME280_pressure;Samples;Min_cycle;Max_cycle;Signal;HPM_P1;HPM_P2
2023/07/15 00:00:23;;;;;;;6.13;4.60;;;;;;;;;;5034450;28;20025;-58
2023/07/15 00:02:50;;;;;;;5.72;3.60;;;;;;;;;;5034000;28;20522;-58
2023/07/15 00:05:16;;;;;;;4.82;4.35;;;;;;;;;;5034124;28;20074;-58
2023/07/15 00:07:41;;;;;;;4.07;3.67;;;;;;;;;;5033521;28;20037;-58
2023/07/15 00:10:07;;;;;;;2.88;2.78;;;;;;;;;;5033456;28;20036;-58
2023/07/15 00:12:33;;;;;;;4.82;4.30;;;;;;;;;;5033984;28;20029;-58
2023/07/15 00:14:59;;;;;;;3.28;2.92;;;;;;;;;;5033708;28;20065;-58
2023/07/15 00:17:24;;;;;;;3.42;2.55;;;;;;;;;;5033451;28;20025;-58
2023/07/15 00:19:50;;;;;;;3.00;2.80;;;;;;;;;;5033486;28;20419;-58
2023/07/15 00:22:15;;;;;;;3.78;3.08;;;;;;;;;;5016181;28;20033;-58
2023/07/15 00:24:41;;;;;;;4.70;3.00;;;;;;;;;;5033589;28;20045;-58
2023/07/15 00:27:08;;;;;;;3.58;2.67;;;;;;;;;;5033934;28;20041;-58
2023/07/15 00:29:33;;;;;;;4.22;3.30;;;;;;;;;;5033463;28;20109;-58
2023/07/15 00:32:01;;;;;;;3.30;3.03;;;;;;;;;;5033400;28;20413;-58
2023/07/15 00:34:27;;;;;;;4.35;2.88;;;;;;;;;;5015726;28;20039;-58
2023/07/15 00:36:53;;;;;;;3.33;3.03;;;;;;;;;;5016428;28;20033;-58
2023/07/15 00:39:18;;;;;;;3.15;2.40;;;;;;;;;;5033637;28;20033;-58
2023/07/15 00:41:44;;;;;;;5.30;2.90;;;;;;;;;;5033327;28;20519;-58
2023/07/15 00:44:14;;;;;;;3.65;2.97;;;;;;;;;;5033737;28;20116;-58
2023/07/15 00:46:58;;;;;;;4.05;2.78;;;;;;;;;;5033522;28;20061;-58
2023/07/15 00:49:27;;;;;;;3.08;2.88;;;;;;;;;;5033362;28;20040;-58
2023/07/15 00:52:00;;;;;;;2.97;2.80;;;;;;;;;;5036422;28;20162;-58
2023/07/15 00:54:26;;;;;;;4.90;2.92;;;;;;;;;;5037391;28;20511;-58
2023/07/15 00:56:52;;;;;;;4.20;2.70;;;;;;;;;;5037582;28;20041;-57
2023/07/15 00:59:17;;;;;;;2.75;2.65;;;;;;;;;;5037236;28;20026;-56
2023/07/15 01:01:45;;;;;;;2.80;2.60;;;;;;;;;;5037247;28;20045;-56
2023/07/15 01:04:10;;;;;;;3.03;2.83;;;;;;;;;;5037332;28;20021;-56
2023/07/15 01:06:35;;;;;;;5.13;3.47;;;;;;;;;;5037308;28;20029;-57
2023/07/15 01:09:07;;;;;;;3.30;2.95;;;;;;;;;;5019245;28;20362;-56
2023/07/15 01:11:32;;;;;;;2.85;2.65;;;;;;;;;;5019422;28;20056;-56
2023/07/15 01:13:58;;;;;;;3.20;2.80;;;;;;;;;;5019407;28;20029;-57
2023/07/15 01:16:24;;;;;;;3.25;2.95;;;;;;;;;;5036962;28;20067;-57
2023/07/15 01:18:50;;;;;;;3.47;3.00;;;;;;;;;;5036631;28;20079;-56
2023/07/15 01:21:15;;;;;;;3.13;2.92;;;;;;;;;;5019693;28;20039;-56
2023/07/15 01:23:41;;;;;;;2.92;2.72;;;;;;;;;;5036991;28;20036;-56
2023/07/15 01:26:06;;;;;;;3.20;2.97;;;;;;;;;;5036524;28;20042;-56
2023/07/15 01:28:31;;;;;;;3.00;2.80;;;;;;;;;;5036531;28;20031;-56
2023/07/15 01:30:58;;;;;;;3.47;2.78;;;;;;;;;;5036701;28;20120;-56
2023/07/15 01:33:24;;;;;;;3.55;2.97;;;;;;;;;;5019205;28;20022;-56
2023/07/15 01:35:49;;;;;;;3.50;2.90;;;;;;;;;;5019021;28;20048;-56
2023/07/15 01:38:15;;;;;;;3.22;3.03;;;;;;;;;;5018540;28;20457;-56
2023/07/15 01:40:41;;;;;;;2.95;2.75;;;;;;;;;;5019025;28;20018;-56
2023/07/15 01:43:06;;;;;;;6.25;3.10;;;;;;;;;;5036802;28;20017;-56
2023/07/15 01:45:31;;;;;;;2.97;2.67;;;;;;;;;;5018366;28;20029;-56
2023/07/15 01:47:57;;;;;;;3.22;3.03;;;;;;;;;;5036420;28;20017;-56
2023/07/15 01:50:22;;;;;;;4.82;3.10;;;;;;;;;;5018339;28;20037;-56
2023/07/15 01:52:48;;;;;;;3.13;2.92;;;;;;;;;;5036472;28;20019;-57
2023/07/15 01:55:13;;;;;;;4.00;2.95;;;;;;;;;;5036109;28;20025;-57
2023/07/15 01:57:39;;;;;;;3.00;2.80;;;;;;;;;;5036151;28;20029;-57
2023/07/15 02:00:08;;;;;;;3.42;3.13;;;;;;;;;;5018126;28;20040;-57
2023/07/15 02:02:38;;;;;;;2.80;2.60;;;;;;;;;;5035399;28;20450;-57
2023/07/15 02:05:03;;;;;;;3.45;2.95;;;;;;;;;;5018032;28;20022;-57
2023/07/15 02:07:29;;;;;;;3.08;2.70;;;;;;;;;;5035890;28;20083;-57
2023/07/15 02:09:55;;;;;;;3.00;2.80;;;;;;;;;;5018222;28;20353;-57
2023/07/15 02:12:21;;;;;;;3.13;2.80;;;;;;;;;;5035974;28;20164;-57
2023/07/15 02:14:46;;;;;;;3.08;2.85;;;;;;;;;;5017876;28;20532;-57
2023/07/15 02:17:11;;;;;;;3.35;3.10;;;;;;;;;;5017832;28;20108;-57
2023/07/15 02:19:37;;;;;;;4.00;3.08;;;;;;;;;;5035813;28;20025;-57
2023/07/15 02:22:03;;;;;;;4.10;2.67;;;;;;;;;;5035402;28;20030;-57
2023/07/15 02:24:29;;;;;;;3.03;2.83;;;;;;;;;;5035293;28;20029;-57
2023/07/15 02:26:55;;;;;;;3.58;3.17;;;;;;;;;;5035827;28;20041;-57
2023/07/15 02:29:20;;;;;;;6.45;4.57;;;;;;;;;;5035667;28;20527;-57
2023/07/15 02:31:46;;;;;;;4.60;4.20;;;;;;;;;;5035292;28;20526;-57
2023/07/15 02:34:13;;;;;;;7.07;3.72;;;;;;;;;;5035678;28;20025;-57
2023/07/15 02:36:38;;;;;;;3.45;3.10;;;;;;;;;;5036048;28;20454;-57
2023/07/15 02:39:06;;;;;;;3.50;3.20;;;;;;;;;;5035864;28;20037;-57
2023/07/15 02:41:33;;;;;;;3.92;3.63;;;;;;;;;;5017756;28;20037;-57
2023/07/15 02:43:59;;;;;;;3.83;3.20;;;;;;;;;;5035351;28;20048;-57
2023/07/15 02:46:24;;;;;;;4.63;2.97;;;;;;;;;;5000836;28;20025;-57
2023/07/15 02:48:49;;;;;;;3.25;3.05;;;;;;;;;;5017223;28;20048;-62
2023/07/15 02:51:14;;;;;;;3.33;3.03;;;;;;;;;;5035110;28;20021;-62
2023/07/15 02:53:40;;;;;;;3.72;2.83;;;;;;;;;;5017175;28;20021;-62
2023/07/15 02:56:06;;;;;;;3.30;3.10;;;;;;;;;;5034829;28;20040;-62
2023/07/15 02:58:31;;;;;;;3.28;3.08;;;;;;;;;;5017425;28;20029;-62
2023/07/15 03:00:56;;;;;;;3.33;3.13;;;;;;;;;;5034783;28;20052;-62
2023/07/15 03:03:22;;;;;;;4.68;2.95;;;;;;;;;;5017375;28;20079;-62
2023/07/15 03:05:48;;;;;;;3.05;2.83;;;;;;;;;;5017497;28;20069;-63
2023/07/15 03:08:14;;;;;;;5.28;2.63;;;;;;;;;;5016874;28;20024;-63
2023/07/15 03:10:41;;;;;;;2.83;2.63;;;;;;;;;;5034552;28;20428;-62
2023/07/15 03:13:06;;;;;;;3.15;2.95;;;;;;;;;;5034710;28;20044;-62
2023/07/15 03:15:31;;;;;;;3.10;2.85;;;;;;;;;;5034195;28;20025;-62
2023/07/15 03:17:57;;;;;;;3.15;2.92;;;;;;;;;;5034817;28;20022;-62
2023/07/15 03:20:23;;;;;;;2.92;2.75;;;;;;;;;;5034372;28;20079;-62
2023/07/15 03:22:49;;;;;;;3.20;2.95;;;;;;;;;;5017022;28;20029;-62
2023/07/15 03:25:15;;;;;;;4.97;3.30;;;;;;;;;;5034189;28;20041;-62
2023/07/15 03:27:40;;;;;;;3.50;3.20;;;;;;;;;;5034479;28;20060;-62
2023/07/15 03:30:08;;;;;;;3.17;2.88;;;;;;;;;;5016615;28;20075;-62
2023/07/15 03:32:35;;;;;;;3.47;3.22;;;;;;;;;;5016381;28;20029;-62
2023/07/15 03:35:01;;;;;;;4.07;3.15;;;;;;;;;;5034381;28;20104;-62
2023/07/15 03:37:26;;;;;;;4.35;2.80;;;;;;;;;;5034121;28;20069;-61
2023/07/15 03:39:52;;;;;;;3.00;2.70;;;;;;;;;;5034473;28;20030;-61
2023/07/15 03:42:17;;;;;;;2.92;2.72;;;;;;;;;;5034246;28;20381;-62
2023/07/15 03:44:42;;;;;;;3.85;3.50;;;;;;;;;;5034121;28;20041;-61
2023/07/15 03:47:08;;;;;;;3.30;3.08;;;;;;;;;;5034247;28;20068;-61
2023/07/15 03:49:33;;;;;;;3.17;2.88;;;;;;;;;;5034068;28;20387;-57
2023/07/15 03:51:59;;;;;;;4.63;3.05;;;;;;;;;;5033779;28;20079;-57
2023/07/15 03:54:24;;;;;;;3.30;3.05;;;;;;;;;;5034064;28;20018;-57
2023/07/15 03:56:49;;;;;;;3.15;2.85;;;;;;;;;;5016160;28;20420;-56
2023/07/15 03:59:14;;;;;;;3.45;2.83;;;;;;;;;;5034037;28;20188;-56
2023/07/15 04:01:40;;;;;;;4.20;3.85;;;;;;;;;;5033631;28;20022;-57
2023/07/15 04:04:08;;;;;;;4.45;3.95;;;;;;;;;;5033657;28;20029;-57
2023/07/15 04:06:34;;;;;;;3.28;2.72;;;;;;;;;;5033888;28;20033;-57
2023/07/15 04:09:00;;;;;;;4.75;3.60;;;;;;;;;;5033595;28;20029;-57
2023/07/15 04:11:25;;;;;;;3.65;3.35;;;;;;;;;;5033442;28;20148;-56
2023/07/15 04:13:51;;;;;;;6.07;3.22;;;;;;;;;;5033835;28;20472;-57
2023/07/15 04:16:16;;;;;;;3.60;3.30;;;;;;;;;;5034094;28;20044;-56
2023/07/15 04:18:45;;;;;;;8.23;4.07;;;;;;;;;;5016277;28;20033;-57
2023/07/15 04:21:10;;;;;;;3.97;3.67;;;;;;;;;;5033383;28;20029;-57
2023/07/15 04:23:35;;;;;;;3.92;3.10;;;;;;;;;;5034158;28;20026;-58
2023/07/15 04:26:02;;;;;;;3.45;3.00;;;;;;;;;;5017648;28;20480;-57
2023/07/15 04:28:27;;;;;;;3.38;3.03;;;;;;;;;;5038187;28;20092;-56
2023/07/15 04:30:52;;;;;;;4.13;3.55;;;;;;;;;;5037329;28;20045;-57
2023/07/15 04:33:18;;;;;;;4.75;3.22;;;;;;;;;;5037439;28;20049;-59
2023/07/15 04:35:44;;;;;;;4.20;3.08;;;;;;;;;;5019330;28;20021;-56
2023/07/15 04:38:10;;;;;;;3.08;2.88;;;;;;;;;;5036657;28;20025;-62
2023/07/15 04:40:35;;;;;;;3.88;2.85;;;;;;;;;;5019524;28;20056;-57
2023/07/15 04:43:00;;;;;;;3.08;2.88;;;;;;;;;;5036708;28;20030;-56
2023/07/15 04:45:26;;;;;;;3.55;2.92;;;;;;;;;;5037136;28;20546;-57
2023/07/15 04:47:51;;;;;;;3.78;2.78;;;;;;;;;;5036965;28;20385;-62
2023/07/15 04:50:17;;;;;;;4.20;2.90;;;;;;;;;;5036467;28;20100;-62
2023/07/15 04:52:42;;;;;;;3.38;3.13;;;;;;;;;;5018760;28;20037;-61
2023/07/15 04:55:09;;;;;;;3.30;2.80;;;;;;;;;;5036498;28;20028;-62
2023/07/15 04:57:34;;;;;;;2.80;2.60;;;;;;;;;;5042551;28;20036;-62
2023/07/15 04:59:59;;;;;;;3.75;2.97;;;;;;;;;;5056210;28;20025;-62
2023/07/15 05:02:25;;;;;;;3.28;2.95;;;;;;;;;;5046650;28;20104;-61
2023/07/15 05:04:50;;;;;;;3.00;2.78;;;;;;;;;;5036389;28;20507;-62
2023/07/15 05:07:15;;;;;;;3.33;3.00;;;;;;;;;;5036000;28;20646;-62
2023/07/15 05:09:41;;;;;;;3.35;3.05;;;;;;;;;;5036197;28;20026;-62
2023/07/15 05:12:06;;;;;;;3.35;3.05;;;;;;;;;;5035974;28;20022;-62
2023/07/15 05:14:32;;;;;;;3.25;2.95;;;;;;;;;;5036071;28;20358;-62
2023/07/15 05:16:58;;;;;;;3.03;2.83;;;;;;;;;;5036369;28;20080;-62
2023/07/15 05:19:24;;;;;;;3.30;3.00;;;;;;;;;;5036206;28;20037;-62
2023/07/15 05:21:49;;;;;;;3.33;3.00;;;;;;;;;;5035646;28;20532;-62
2023/07/15 05:24:15;;;;;;;3.33;3.08;;;;;;;;;;5017978;28;20384;-63
2023/07/15 05:26:47;;;;;;;3.38;3.08;;;;;;;;;;5017425;28;20038;-62
2023/07/15 05:29:12;;;;;;;3.78;3.17;;;;;;;;;;5035561;28;20033;-62
2023/07/15 05:31:38;;;;;;;3.20;3.00;;;;;;;;;;5017780;28;20164;-62
2023/07/15 05:34:04;;;;;;;2.95;2.72;;;;;;;;;;5035332;28;20495;-62
2023/07/15 05:36:29;;;;;;;3.63;2.83;;;;;;;;;;5035277;28;20124;-62
2023/07/15 05:38:54;;;;;;;3.65;3.42;;;;;;;;;;5035338;28;20040;-62
2023/07/15 05:41:19;;;;;;;4.38;3.30;;;;;;;;;;5035302;28;20033;-62
2023/07/15 05:43:45;;;;;;;3.00;2.80;;;;;;;;;;5035249;28;20025;-62
2023/07/15 05:46:10;;;;;;;3.45;2.50;;;;;;;;;;5035392;28;20087;-62
2023/07/15 05:48:35;;;;;;;3.25;3.05;;;;;;;;;;5017453;28;20037;-61
2023/07/15 05:51:01;;;;;;;3.08;2.88;;;;;;;;;;5035284;28;20014;-62
2023/07/15 05:53:27;;;;;;;2.80;2.60;;;;;;;;;;5035083;28;20029;-62
2023/07/15 05:55:52;;;;;;;3.47;3.15;;;;;;;;;;5035001;28;20479;-62
2023/07/15 05:58:26;;;;;;;3.22;3.03;;;;;;;;;;5034890;28;20026;-62
2023/07/15 06:00:51;;;;;;;3.47;3.17;;;;;;;;;;5035523;28;20026;-62
2023/07/15 06:03:17;;;;;;;3.20;2.97;;;;;;;;;;5034794;28;20437;-62
2023/07/15 06:05:43;;;;;;;3.20;2.88;;;;;;;;;;5034720;28;20528;-62
2023/07/15 06:08:09;;;;;;;3.50;2.75;;;;;;;;;;5034128;28;20057;-62
2023/07/15 06:10:34;;;;;;;3.13;2.85;;;;;;;;;;5034438;28;20053;-62
2023/07/15 06:13:00;;;;;;;3.20;3.00;;;;;;;;;;5034302;28;20018;-61
2023/07/15 06:15:25;;;;;;;4.20;2.85;;;;;;;;;;5034322;28;20068;-60
2023/07/15 06:17:50;;;;;;;2.97;2.38;;;;;;;;;;5034269;28;20083;-60
2023/07/15 06:20:18;;;;;;;3.72;2.70;;;;;;;;;;5034285;28;20038;-61
2023/07/15 06:22:43;;;;;;;2.72;2.50;;;;;;;;;;5034212;28;20055;-61
2023/07/15 06:25:08;;;;;;;2.90;2.67;;;;;;;;;;5034087;28;20496;-60
2023/07/15 06:27:34;;;;;;;2.60;2.50;;;;;;;;;;5033904;28;20030;-61
2023/07/15 06:29:59;;;;;;;3.70;2.67;;;;;;;;;;5033991;28;20034;-61
2023/07/15 06:32:24;;;;;;;2.72;2.53;;;;;;;;;;5033907;28;20022;-61
2023/07/15 06:34:50;;;;;;;4.90;2.47;;;;;;;;;;5016378;28;20022;-61
2023/07/15 06:37:15;;;;;;;2.55;2.35;;;;;;;;;;5034090;28;20476;-61
2023/07/15 06:39:40;;;;;;;3.10;2.63;;;;;;;;;;5016211;28;20037;-61
2023/07/15 06:42:06;;;;;;;5.47;2.95;;;;;;;;;;5033832;28;20079;-61
2023/07/15 06:44:31;;;;;;;5.13;2.58;;;;;;;;;;5016251;28;20041;-61
2023/07/15 06:46:57;;;;;;;9.88;3.08;;;;;;;;;;5033845;28;20045;-61
2023/07/15 06:49:22;;;;;;;5.53;3.03;;;;;;;;;;5033150;28;20101;-60
2023/07/15 06:51:47;;;;;;;7.57;3.08;;;;;;;;;;5033712;28;20030;-61
2023/07/15 06:54:13;;;;;;;10.13;3.08;;;;;;;;;;5033777;28;20053;-61
2023/07/15 06:56:38;;;;;;;9.18;3.40;;;;;;;;;;5015942;28;20473;-61
2023/07/15 06:59:03;;;;;;;7.22;2.85;;;;;;;;;;5033447;28;20028;-61
2023/07/15 07:01:29;;;;;;;3.80;1.80;;;;;;;;;;5033398;28;20029;-62
2023/07/15 07:03:57;;;;;;;3.20;2.08;;;;;;;;;;5033169;28;20591;-61
2023/07/15 07:06:23;;;;;;;1.63;1.52;;;;;;;;;;4999122;28;20041;-61
2023/07/15 07:08:48;;;;;;;2.13;2.03;;;;;;;;;;5033453;28;20029;-61
2023/07/15 07:11:14;;;;;;;2.05;1.88;;;;;;;;;;5033415;28;20036;-61
2023/07/15 07:13:40;;;;;;;2.60;2.08;;;;;;;;;;5033129;28;20029;-61
2023/07/15 07:16:05;;;;;;;2.65;2.10;;;;;;;;;;5032948;28;20080;-61
2023/07/15 07:18:31;;;;;;;3.00;2.38;;;;;;;;;;5033493;28;20424;-61
2023/07/15 07:20:57;;;;;;;6.22;3.00;;;;;;;;;;5032728;28;20459;-61
2023/07/15 07:23:22;;;;;;;3.35;2.38;;;;;;;;;;5015487;28;20033;-61
2023/07/15 07:25:49;;;;;;;2.15;1.67;;;;;;;;;;5032656;28;20400;-61
2023/07/15 07:28:14;;;;;;;1.88;1.73;;;;;;;;;;5033098;28;20085;-61
2023/07/15 07:30:40;;;;;;;2.13;2.03;;;;;;;;;;5033211;28;20017;-61
2023/07/15 07:33:05;;;;;;;2.50;2.28;;;;;;;;;;5032777;28;20029;-61
2023/07/15 07:35:31;;;;;;;5.22;2.50;;;;;;;;;;5032757;28;20500;-61
2023/07/15 07:37:56;;;;;;;2.50;2.30;;;;;;;;;;5032842;28;20029;-62
2023/07/15 07:40:21;;;;;;;2.42;2.33;;;;;;;;;;5032895;28;20033;-62
2023/07/15 07:42:46;;;;;;;1.45;1.35;;;;;;;;;;5033269;28;20022;-62
2023/07/15 07:45:12;;;;;;;2.60;1.95;;;;;;;;;;5032794;28;20040;-62
2023/07/15 07:47:38;;;;;;;2.85;1.92;;;;;;;;;;5032637;28;20034;-62
2023/07/15 07:50:03;;;;;;;2.22;2.03;;;;;;;;;;5032944;28;20093;-62
2023/07/15 07:52:29;;;;;;;3.47;2.08;;;;;;;;;;5033092;28;20381;-62
2023/07/15 07:54:54;;;;;;;3.95;2.58;;;;;;;;;;5015055;28;20030;-62
2023/07/15 07:57:19;;;;;;;2.00;1.80;;;;;;;;;;5032578;28;20150;-62
2023/07/15 07:59:45;;;;;;;2.53;1.98;;;;;;;;;;5032267;28;20101;-62
2023/07/15 08:02:10;;;;;;;2.22;2.13;;;;;;;;;;5032544;28;20029;-62
2023/07/15 08:04:35;;;;;;;3.53;2.20;;;;;;;;;;5015412;28;20029;-62
2023/07/15 08:07:02;;;;;;;3.00;2.25;;;;;;;;;;5033305;28;20120;-62
2023/07/15 08:09:27;;;;;;;1.80;1.70;;;;;;;;;;5033329;28;20022;-62
2023/07/15 08:11:52;;;;;;;3.20;1.85;;;;;;;;;;5032921;28;20041;-62
2023/07/15 08:14:19;;;;;;;2.70;2.10;;;;;;;;;;5032797;28;20025;-62
2023/07/15 08:16:44;;;;;;;1.85;1.75;;;;;;;;;;5032792;28;20087;-62
2023/07/15 08:19:10;;;;;;;2.60;2.40;;;;;;;;;;5032697;28;20473;-62
2023/07/15 08:21:37;;;;;;;2.45;2.22;;;;;;;;;;5032853;28;20136;-61
2023/07/15 08:24:02;;;;;;;1.92;1.45;;;;;;;;;;5033021;28;20042;-62
2023/07/15 08:26:28;;;;;;;2.30;2.20;;;;;;;;;;5032718;28;20037;-62
2023/07/15 08:28:55;;;;;;;1.95;1.85;;;;;;;;;;5032619;28;20049;-62
2023/07/15 08:31:20;;;;;;;2.60;2.40;;;;;;;;;;5014834;28;20041;-62
2023/07/15 08:33:46;;;;;;;4.22;2.30;;;;;;;;;;4995636;28;20038;-62
2023/07/15 08:36:11;;;;;;;2.28;1.92;;;;;;;;;;5013330;28;20022;-62
2023/07/15 08:38:37;;;;;;;1.73;1.63;;;;;;;;;;5012944;28;20029;-62
2023/07/15 08:41:02;;;;;;;1.75;1.65;;;;;;;;;;4995469;28;20022;-61
2023/07/15 08:43:34;;;;;;;3.38;2.60;;;;;;;;;;5012755;28;20022;-62
2023/07/15 08:46:00;;;;;;;2.25;2.10;;;;;;;;;;4995024;28;20496;-62
2023/07/15 08:48:26;;;;;;;4.10;2.13;;;;;;;;;;5013008;28;20042;-62
2023/07/15 08:50:55;;;;;;;2.97;2.08;;;;;;;;;;5012985;28;20045;-62
2023/07/15 08:53:24;;;;;;;4.53;2.00;;;;;;;;;;5013050;28;20461;-61
2023/07/15 08:55:50;;;;;;;2.58;2.30;;;;;;;;;;5012639;28;20026;-62
2023/07/15 08:58:15;;;;;;;4.28;2.83;;;;;;;;;;5013032;28;20084;-62
2023/07/15 09:00:41;;;;;;;2.47;2.38;;;;;;;;;;5012785;28;20010;-61
2023/07/15 09:03:06;;;;;;;2.50;2.30;;;;;;;;;;5012398;28;20022;-62
2023/07/15 09:05:33;;;;;;;2.47;2.30;;;;;;;;;;5012229;28;20052;-62
2023/07/15 09:07:58;;;;;;;2.72;2.25;;;;;;;;;;5012599;28;20091;-61
2023/07/15 09:10:24;;;;;;;2.50;2.30;;;;;;;;;;4995280;28;20062;-62
2023/07/15 09:12:54;;;;;;;2.53;2.33;;;;;;;;;;5014828;28;20076;-61
2023/07/15 09:15:19;;;;;;;3.88;2.38;;;;;;;;;;5016143;28;20034;-62
2023/07/15 09:17:51;;;;;;;2.15;2.05;;;;;;;;;;5016429;28;20026;-62
2023/07/15 09:20:18;;;;;;;2.47;2.38;;;;;;;;;;5016338;28;20068;-62
2023/07/15 09:22:45;;;;;;;6.28;4.22;;;;;;;;;;5016303;28;20079;-62
2023/07/15 09:25:11;;;;;;;5.90;3.00;;;;;;;;;;5021404;28;20088;-62
2023/07/15 09:27:45;;;;;;;3.78;2.00;;;;;;;;;;5036053;28;20103;-61
2023/07/15 09:30:10;;;;;;;2.60;2.40;;;;;;;;;;5035880;28;20040;-62
2023/07/15 09:32:36;;;;;;;1.77;1.67;;;;;;;;;;5036002;28;20025;-61
2023/07/15 09:35:02;;;;;;;2.75;2.53;;;;;;;;;;5035723;28;20021;-62
2023/07/15 09:37:28;;;;;;;2.40;2.28;;;;;;;;;;5018390;28;20044;-62
2023/07/15 09:40:01;;;;;;;2.30;2.20;;;;;;;;;;5036026;28;20087;-62
2023/07/15 09:42:29;;;;;;;1.77;1.67;;;;;;;;;;5035839;28;20033;-62
2023/07/15 09:44:55;;;;;;;2.58;2.38;;;;;;;;;;5035329;28;20025;-62
2023/07/15 09:47:21;;;;;;;2.70;2.50;;;;;;;;;;5017303;28;20033;-61
2023/07/15 09:49:46;;;;;;;3.13;2.90;;;;;;;;;;5017319;28;20044;-61
2023/07/15 09:52:13;;;;;;;2.53;2.33;;;;;;;;;;5034683;28;20022;-62
2023/07/15 09:54:41;;;;;;;3.05;2.42;;;;;;;;;;5034949;28;20059;-61
2023/07/15 09:57:10;;;;;;;2.05;1.95;;;;;;;;;;5035524;28;20032;-62
2023/07/15 09:59:42;;;;;;;3.53;2.60;;;;;;;;;;5034609;28;20030;-62
2023/07/15 10:02:16;;;;;;;2.85;2.20;;;;;;;;;;5035301;28;20026;-62
2023/07/15 10:04:45;;;;;;;2.30;2.17;;;;;;;;;;5035003;28;20112;-62
2023/07/15 10:07:11;;;;;;;2.50;2.40;;;;;;;;;;5017426;28;20033;-62
2023/07/15 10:09:37;;;;;;;2.75;2.55;;;;;;;;;;5035375;28;20345;-62
2023/07/15 10:12:03;;;;;;;3.00;2.80;;;;;;;;;;5034622;28;20048;-62
2023/07/15 10:14:30;;;;;;;2.33;2.17;;;;;;;;;;5017116;28;20095;-62
2023/07/15 10:17:12;;;;;;;2.28;2.13;;;;;;;;;;5035138;28;20034;-62
2023/07/15 10:19:38;;;;;;;2.70;2.53;;;;;;;;;;5035048;28;20080;-62
2023/07/15 10:22:04;;;;;;;1.50;1.40;;;;;;;;;;5035099;28;20048;-62
2023/07/15 10:24:29;;;;;;;1.92;1.83;;;;;;;;;;5033965;28;20029;-62
2023/07/15 10:26:54;;;;;;;1.60;1.50;;;;;;;;;;5034999;28;20033;-62
2023/07/15 10:29:23;;;;;;;2.88;2.55;;;;;;;;;;5034635;28;20057;-62
2023/07/15 10:32:07;;;;;;;2.65;2.47;;;;;;;;;;5035039;28;20034;-62
2023/07/15 10:34:35;;;;;;;2.20;2.10;;;;;;;;;;5034802;28;20032;-62
2023/07/15 10:37:05;;;;;;;2.42;2.33;;;;;;;;;;5034782;28;20033;-63
2023/07/15 10:39:34;;;;;;;4.60;2.35;;;;;;;;;;5034624;28;20364;-63
2023/07/15 10:42:06;;;;;;;3.00;2.38;;;;;;;;;;5034038;28;20027;-63
2023/07/15 10:44:37;;;;;;;2.53;2.10;;;;;;;;;;5033913;28;20033;-63
2023/07/15 10:47:03;;;;;;;1.23;1.23;;;;;;;;;;5014292;28;20030;-63
2023/07/15 10:49:32;;;;;;;2.30;2.20;;;;;;;;;;5034634;28;20021;-63
2023/07/15 10:51:57;;;;;;;2.60;2.40;;;;;;;;;;5053454;28;20051;-63
2023/07/15 10:54:25;;;;;;;2.38;2.28;;;;;;;;;;5034251;28;20033;-63
2023/07/15 10:56:51;;;;;;;3.58;2.35;;;;;;;;;;5025152;28;20044;-63
2023/07/15 10:59:17;;;;;;;2.63;2.15;;;;;;;;;;5012444;28;20485;-63
2023/07/15 11:01:42;;;;;;;4.22;3.75;;;;;;;;;;5014551;28;20100;-63
2023/07/15 11:04:08;;;;;;;3.40;2.15;;;;;;;;;;5013144;28;20061;-63
2023/07/15 11:06:34;;;;;;;4.03;2.53;;;;;;;;;;5014499;28;20088;-63
2023/07/15 11:09:12;;;;;;;5.68;2.70;;;;;;;;;;5013993;28;20032;-63
2023/07/15 11:11:39;;;;;;;4.63;3.20;;;;;;;;;;5013977;28;20761;-63
2023/07/15 11:14:04;;;;;;;2.97;2.83;;;;;;;;;;5013761;28;20348;-63
2023/07/15 11:16:29;;;;;;;3.38;3.17;;;;;;;;;;5012524;28;20083;-63
2023/07/15 11:18:55;;;;;;;3.47;3.17;;;;;;;;;;5013693;28;20041;-63
2023/07/15 11:21:20;;;;;;;3.65;2.80;;;;;;;;;;5013906;28;20030;-64
2023/07/15 11:23:45;;;;;;;3.88;2.33;;;;;;;;;;5014140;28;20034;-63
2023/07/15 11:26:11;;;;;;;2.72;2.53;;;;;;;;;;5029353;28;20037;-64
2023/07/15 11:28:54;;;;;;;3.25;2.88;;;;;;;;;;5033497;28;20034;-64
2023/07/15 11:31:20;;;;;;;5.90;2.70;;;;;;;;;;5033985;28;20030;-63
2023/07/15 11:33:48;;;;;;;2.50;2.30;;;;;;;;;;5037575;28;20017;-62
2023/07/15 11:36:14;;;;;;;2.17;2.08;;;;;;;;;;5051059;28;20023;-62
2023/07/15 11:38:41;;;;;;;2.08;1.92;;;;;;;;;;5036196;28;20020;-62
2023/07/15 11:41:06;;;;;;;2.67;2.47;;;;;;;;;;5053862;28;20080;-62
2023/07/15 11:43:31;;;;;;;2.60;2.20;;;;;;;;;;5053893;28;20049;-62
2023/07/15 11:45:58;;;;;;;2.20;2.10;;;;;;;;;;5053864;28;20095;-62
2023/07/15 11:48:33;;;;;;;2.38;2.17;;;;;;;;;;5035170;28;20037;-62
2023/07/15 11:51:05;;;;;;;2.17;2.00;;;;;;;;;;5051910;28;20472;-62
2023/07/15 11:53:35;;;;;;;2.20;2.00;;;;;;;;;;5052061;28;20024;-62
2023/07/15 11:56:01;;;;;;;1.77;1.67;;;;;;;;;;5033953;28;20033;-62
2023/07/15 11:58:42;;;;;;;2.08;1.77;;;;;;;;;;5051891;28;20029;-62
2023/07/15 12:01:12;;;;;;;2.03;1.83;;;;;;;;;;5051703;28;20048;-62
2023/07/15 12:03:39;;;;;;;1.97;1.87;;;;;;;;;;5051664;28;20109;-62
2023/07/15 12:06:11;;;;;;;2.33;1.70;;;;;;;;;;5033793;28;20825;-62
2023/07/15 12:08:36;;;;;;;1.80;1.70;;;;;;;;;;5052334;28;20033;-62
2023/07/15 12:11:02;;;;;;;1.98;1.77;;;;;;;;;;5054170;28;20021;-62
2023/07/15 12:13:28;;;;;;;2.15;1.95;;;;;;;;;;5053555;28;20029;-62
2023/07/15 12:15:53;;;;;;;2.33;1.50;;;;;;;;;;5053785;28;20039;-62
2023/07/15 12:18:18;;;;;;;2.00;1.90;;;;;;;;;;5053506;28;20033;-62
2023/07/15 12:20:44;;;;;;;3.10;1.75;;;;;;;;;;5053505;28;20467;-62
2023/07/15 12:23:09;;;;;;;2.45;1.95;;;;;;;;;;5035618;28;20037;-62
2023/07/15 12:25:34;;;;;;;2.00;1.90;;;;;;;;;;5053705;28;20460;-62
2023/07/15 12:27:59;;;;;;;3.03;2.13;;;;;;;;;;5053662;28;20029;-62
2023/07/15 12:30:25;;;;;;;1.80;1.70;;;;;;;;;;5053374;28;20395;-62
2023/07/15 12:32:50;;;;;;;1.63;1.52;;;;;;;;;;5053967;28;20066;-62
2023/07/15 12:35:15;;;;;;;2.15;2.05;;;;;;;;;;5053343;28;20029;-62
2023/07/15 12:37:41;;;;;;;2.10;2.00;;;;;;;;;;5053640;28;20032;-62
2023/07/15 12:40:06;;;;;;;2.22;2.13;;;;;;;;;;5053331;28;20111;-62
2023/07/15 12:42:32;;;;;;;1.92;1.70;;;;;;;;;;5053556;28;20025;-62
2023/07/15 12:44:57;;;;;;;2.33;2.17;;;;;;;;;;5053532;28;20051;-62
2023/07/15 12:47:23;;;;;;;2.13;2.03;;;;;;;;;;5054983;28;20561;-62
2023/07/15 12:49:49;;;;;;;2.42;2.10;;;;;;;;;;5057798;28;20032;-62
2023/07/15 12:52:14;;;;;;;3.63;1.98;;;;;;;;;;5057159;28;20108;-62
2023/07/15 12:54:40;;;;;;;1.90;1.80;;;;;;;;;;5057454;28;20029;-62
2023/07/15 12:57:05;;;;;;;3.42;2.13;;;;;;;;;;5057107;28;20064;-62
2023/07/15 12:59:30;;;;;;;3.15;2.15;;;;;;;;;;5039204;28;20087;-62
2023/07/15 13:01:55;;;;;;;2.10;2.00;;;;;;;;;;5057050;28;20063;-62
2023/07/15 13:04:21;;;;;;;1.90;1.80;;;;;;;;;;5057021;28;20028;-62
2023/07/15 13:06:46;;;;;;;2.10;1.75;;;;;;;;;;5056882;28;20082;-62
2023/07/15 13:09:11;;;;;;;3.53;2.40;;;;;;;;;;5056902;28;20025;-62
2023/07/15 13:11:37;;;;;;;2.45;2.15;;;;;;;;;;5056856;28;20490;-62
2023/07/15 13:14:03;;;;;;;2.28;2.08;;;;;;;;;;5056732;28;20029;-62
2023/07/15 13:16:28;;;;;;;3.03;2.00;;;;;;;;;;5057044;28;20044;-62
2023/07/15 13:18:53;;;;;;;3.08;2.20;;;;;;;;;;5056994;28;20033;-62
2023/07/15 13:21:19;;;;;;;3.65;2.20;;;;;;;;;;5056727;28;20029;-62
2023/07/15 13:23:44;;;;;;;3.55;2.08;;;;;;;;;;5056627;28;20032;-62
2023/07/15 13:26:09;;;;;;;1.90;1.80;;;;;;;;;;5056433;28;20056;-62
2023/07/15 13:28:35;;;;;;;2.13;2.03;;;;;;;;;;5056561;28;20052;-62
2023/07/15 13:31:00;;;;;;;2.08;1.98;;;;;;;;;;5056504;28;20460;-62
2023/07/15 13:33:25;;;;;;;2.20;2.10;;;;;;;;;;5056366;28;20079;-62
2023/07/15 13:35:53;;;;;;;2.30;2.17;;;;;;;;;;5056409;28;20526;-62
2023/07/15 13:38:18;;;;;;;2.50;2.30;;;;;;;;;;5038473;28;20112;-62
2023/07/15 13:40:43;;;;;;;4.07;2.28;;;;;;;;;;5056131;28;20068;-62
2023/07/15 13:43:09;;;;;;;2.17;2.08;;;;;;;;;;5042558;28;20029;-63
2023/07/15 13:45:34;;;;;;;2.22;2.08;;;;;;;;;;5018288;28;20488;-62
2023/07/15 13:47:59;;;;;;;2.53;1.98;;;;;;;;;;5034966;28;20527;-62
2023/07/15 13:50:25;;;;;;;2.47;2.33;;;;;;;;;;5035912;28;20528;-62
2023/07/15 13:52:50;;;;;;;1.80;1.70;;;;;;;;;;5036067;28;20021;-63
2023/07/15 13:55:16;;;;;;;2.50;2.30;;;;;;;;;;5036086;28;20033;-62
2023/07/15 13:57:42;;;;;;;3.72;2.17;;;;;;;;;;5035465;28;20028;-62
2023/07/15 14:00:08;;;;;;;1.58;1.48;;;;;;;;;;5034462;28;20496;-62
2023/07/15 14:02:38;;;;;;;3.10;2.03;;;;;;;;;;5036709;28;20029;-56
2023/07/15 14:05:04;;;;;;;2.17;2.08;;;;;;;;;;5044697;28;20484;-56
2023/07/15 14:07:29;;;;;;;2.17;1.95;;;;;;;;;;5034443;28;20492;-56
2023/07/15 14:09:55;;;;;;;2.53;1.88;;;;;;;;;;5042621;28;20025;-63
2023/07/15 14:12:20;;;;;;;3.10;1.95;;;;;;;;;;5035556;28;20017;-62
2023/07/15 14:14:45;;;;;;;2.40;2.20;;;;;;;;;;5043179;28;20440;-62
2023/07/15 14:17:11;;;;;;;2.00;1.90;;;;;;;;;;5038062;28;20132;-63
2023/07/15 14:19:36;;;;;;;1.88;1.73;;;;;;;;;;5034765;28;20120;-62
2023/07/15 14:22:02;;;;;;;2.15;2.03;;;;;;;;;;5035093;28;20374;-62
2023/07/15 14:24:28;;;;;;;2.28;2.17;;;;;;;;;;5035115;28;20079;-62
2023/07/15 14:26:53;;;;;;;2.13;2.03;;;;;;;;;;5035106;28;20037;-62
2023/07/15 14:29:18;;;;;;;4.13;2.38;;;;;;;;;;5035072;28;20088;-62
2023/07/15 14:31:44;;;;;;;2.40;2.20;;;;;;;;;;5035190;28;20060;-62
2023/07/15 14:34:10;;;;;;;3.13;2.05;;;;;;;;;;5034994;28;20037;-62
2023/07/15 14:36:35;;;;;;;3.75;2.70;;;;;;;;;;5035165;28;20026;-62